createdAt,value
2022-09-30T00:01:17.137Z,58.33
2022-09-30T00:04:05.721Z,60.17
2022-09-30T00:06:55.091Z,60.27
2022-09-30T00:09:44.962Z,60.73
2022-09-30T00:12:33.336Z,60.73
2022-09-30T00:15:24.387Z,59.60
2022-09-30T00:18:12.636Z,60.70
2022-09-30T00:21:02.045Z,61.07
2022-09-30T00:23:50.432Z,61.20
2022-09-30T00:26:40.120Z,61.23
2022-09-30T00:29:28.410Z,60.10
2022-09-30T00:32:16.802Z,61.00
2022-09-30T00:35:05.660Z,61.00
2022-09-30T00:37:55.250Z,60.27
2022-09-30T00:40:44.203Z,59.67
2022-09-30T00:43:45.678Z,60.60
2022-09-30T00:46:43.679Z,59.83
2022-09-30T00:49:32.912Z,60.13
2022-09-30T00:52:21.409Z,61.20
2022-09-30T00:55:18.377Z,60.97
2022-09-30T00:58:09.835Z,60.90
2022-09-30T01:01:02.913Z,60.53
2022-09-30T01:03:55.682Z,61.47
2022-09-30T01:06:45.152Z,60.70
2022-09-30T01:09:35.017Z,60.47
2022-09-30T01:12:25.820Z,59.90
2022-09-30T01:15:14.336Z,59.87
2022-09-30T01:18:12.022Z,57.90
2022-09-30T01:21:51.950Z,58.53
2022-09-30T01:24:51.647Z,60.23
2022-09-30T01:28:06.768Z,58.77
2022-09-30T01:31:12.655Z,59.13
2022-09-30T01:34:11.376Z,59.77
2022-09-30T01:37:09.155Z,59.80
2022-09-30T01:40:04.794Z,60.53
2022-09-30T01:43:03.764Z,57.93
2022-09-30T01:46:00.235Z,58.97
2022-09-30T01:48:57.558Z,58.53
2022-09-30T01:51:53.610Z,56.80
2022-09-30T01:54:48.266Z,57.63
2022-09-30T01:57:45.163Z,58.40
2022-09-30T02:00:37.519Z,56.63
2022-09-30T02:03:32.048Z,57.17
2022-09-30T02:06:26.492Z,57.63
2022-09-30T02:09:17.941Z,57.93
2022-09-30T02:12:10.685Z,56.87
2022-09-30T02:15:03.930Z,56.40
2022-09-30T02:17:58.372Z,56.83
2022-09-30T02:20:50.696Z,57.17
2022-09-30T02:23:45.774Z,55.70
2022-09-30T02:26:37.686Z,54.23
2022-09-30T02:29:31.075Z,56.27
2022-09-30T02:32:24.838Z,54.03
2022-09-30T02:35:20.013Z,54.43
2022-09-30T02:38:15.224Z,55.07
2022-09-30T02:41:10.548Z,54.83
2022-09-30T02:44:01.278Z,56.07
2022-09-30T02:46:58.437Z,53.77
2022-09-30T02:49:51.336Z,55.27
2022-09-30T02:52:49.416Z,55.80
2022-09-30T02:55:52.850Z,54.07
2022-09-30T02:58:44.696Z,54.83
2022-09-30T03:01:33.502Z,54.13
2022-09-30T03:04:26.314Z,53.20
2022-09-30T03:07:15.708Z,54.23
2022-09-30T03:10:14.309Z,54.23
2022-09-30T03:13:19.743Z,54.27
2022-09-30T03:16:20.514Z,54.53
2022-09-30T03:19:23.953Z,53.47
2022-09-30T03:22:30.536Z,54.67
2022-09-30T03:25:28.447Z,55.20
2022-09-30T03:28:26.403Z,54.73
2022-09-30T03:31:26.109Z,53.80
2022-09-30T03:34:26.998Z,55.47
2022-09-30T03:37:25.724Z,56.70
2022-09-30T03:40:19.546Z,55.87
2022-09-30T03:43:16.161Z,56.93
2022-09-30T03:46:11.289Z,56.53
2022-09-30T03:49:04.255Z,57.10
2022-09-30T03:51:53.801Z,60.40
2022-09-30T03:54:50.917Z,58.00
2022-09-30T03:57:39.511Z,61.10
2022-09-30T04:00:27.994Z,59.93
2022-09-30T04:03:16.419Z,60.10
2022-09-30T04:06:06.412Z,59.83
2022-09-30T04:08:55.037Z,59.77
2022-09-30T04:11:43.437Z,60.47
2022-09-30T04:14:31.886Z,59.77
2022-09-30T04:17:20.356Z,61.30
2022-09-30T04:20:09.388Z,62.23
2022-09-30T04:23:00.100Z,62.23
2022-09-30T04:25:53.513Z,61.57
2022-09-30T04:28:42.217Z,60.87
2022-09-30T04:31:30.655Z,61.93
2022-09-30T04:34:19.075Z,62.80
2022-09-30T04:37:10.786Z,61.40
2022-09-30T04:40:02.011Z,62.13
2022-09-30T04:42:50.370Z,62.50
2022-09-30T04:45:39.392Z,62.13
2022-09-30T04:48:28.954Z,61.60
2022-09-30T04:51:19.624Z,62.50
2022-09-30T04:54:07.981Z,63.00
2022-09-30T04:56:57.759Z,64.63
2022-09-30T04:59:46.122Z,61.87
2022-09-30T05:02:34.448Z,63.27
2022-09-30T05:05:22.834Z,61.27
2022-09-30T05:08:11.290Z,62.23
2022-09-30T05:11:01.739Z,60.63
2022-09-30T05:13:52.111Z,60.33
2022-09-30T05:16:40.517Z,62.03
2022-09-30T05:19:28.866Z,60.23
2022-09-30T05:22:17.403Z,59.70
2022-09-30T05:25:06.625Z,62.97
2022-09-30T05:27:54.968Z,61.80
2022-09-30T05:30:45.516Z,63.20
2022-09-30T05:33:36.033Z,62.00
2022-09-30T05:36:24.533Z,63.60
2022-09-30T05:39:13.556Z,62.73
2022-09-30T05:42:01.986Z,62.63
2022-09-30T05:44:50.498Z,63.97
2022-09-30T05:47:40.404Z,62.17
2022-09-30T05:50:29.372Z,63.90
2022-09-30T05:53:19.494Z,67.60
2022-09-30T05:56:09.195Z,65.90
2022-09-30T05:58:58.988Z,63.37
2022-09-30T06:01:47.494Z,63.93
2022-09-30T06:04:37.826Z,65.67
2022-09-30T06:07:26.505Z,66.83
2022-09-30T06:10:14.850Z,67.10
2022-09-30T06:13:04.166Z,63.83
2022-09-30T06:15:59.868Z,63.00
2022-09-30T06:18:48.287Z,62.80
2022-09-30T06:21:39.523Z,62.27
2022-09-30T06:24:28.181Z,62.40
2022-09-30T06:27:16.626Z,63.27
2022-09-30T06:30:05.660Z,63.17
2022-09-30T06:32:57.385Z,61.47
2022-09-30T06:35:47.505Z,61.30
2022-09-30T06:38:39.931Z,62.57
2022-09-30T06:41:29.012Z,59.03
2022-09-30T06:44:17.369Z,61.40
2022-09-30T06:47:10.740Z,59.30
2022-09-30T06:50:04.267Z,58.87
2022-09-30T06:52:52.767Z,59.57
2022-09-30T06:55:43.150Z,59.40
2022-09-30T06:58:31.600Z,60.87
2022-09-30T07:01:21.099Z,58.43
2022-09-30T07:04:11.488Z,57.50
2022-09-30T07:06:59.929Z,58.50
2022-09-30T07:09:48.531Z,56.67
2022-09-30T07:12:38.596Z,56.47
2022-09-30T07:15:27.023Z,57.57
2022-09-30T07:18:20.663Z,59.00
2022-09-30T07:21:09.029Z,55.53
2022-09-30T07:23:59.005Z,53.43
2022-09-30T07:26:47.291Z,54.83
2022-09-30T07:29:56.857Z,54.83
2022-09-30T07:32:45.345Z,55.53
2022-09-30T07:35:34.126Z,53.40
2022-09-30T07:38:24.282Z,57.37
2022-09-30T07:41:14.482Z,53.10
2022-09-30T07:44:03.280Z,53.87
2022-09-30T07:46:52.996Z,52.57
2022-09-30T07:49:41.513Z,52.43
2022-09-30T07:52:29.852Z,53.13
2022-09-30T07:55:18.147Z,54.70
2022-09-30T07:58:08.256Z,52.60
2022-09-30T08:00:56.571Z,53.43
2022-09-30T08:03:46.473Z,53.77
2022-09-30T08:06:38.927Z,53.43
2022-09-30T08:09:29.710Z,53.27
2022-09-30T08:12:18.265Z,54.30
2022-09-30T08:15:09.743Z,53.03
2022-09-30T08:17:58.045Z,51.73
2022-09-30T08:20:47.944Z,52.83
2022-09-30T08:23:36.484Z,52.87
2022-09-30T08:26:25.199Z,53.03
2022-09-30T08:29:20.348Z,51.83
2022-09-30T08:32:09.285Z,52.57
2022-09-30T08:34:57.660Z,53.70
2022-09-30T08:37:47.430Z,52.57
2022-09-30T08:40:54.375Z,51.80
2022-09-30T08:43:55.628Z,53.07
2022-09-30T08:46:48.220Z,53.33
2022-09-30T08:49:50.078Z,51.60
2022-09-30T08:52:49.487Z,52.13
2022-09-30T08:55:42.928Z,52.47
2022-09-30T08:58:33.576Z,50.53
2022-09-30T09:01:31.078Z,49.40
2022-09-30T09:04:20.062Z,49.43
2022-09-30T09:07:18.758Z,50.27
2022-09-30T09:10:20.069Z,50.27
2022-09-30T09:13:19.495Z,49.97
2022-09-30T09:16:14.213Z,49.73
2022-09-30T09:19:10.825Z,50.37
2022-09-30T09:22:03.201Z,48.23
2022-09-30T09:24:53.654Z,49.03
2022-09-30T09:27:51.169Z,47.93
2022-09-30T09:30:47.203Z,48.33
2022-09-30T09:33:39.557Z,47.40
2022-09-30T09:36:45.581Z,47.33
2022-09-30T09:39:51.030Z,46.17
2022-09-30T09:42:59.322Z,46.97
2022-09-30T09:45:57.258Z,45.93
2022-09-30T09:48:46.014Z,47.10
2022-09-30T09:51:37.349Z,46.60
2022-09-30T09:54:31.247Z,47.87
2022-09-30T09:57:25.901Z,47.43
2022-09-30T10:00:51.242Z,47.73
2022-09-30T10:03:40.984Z,44.90
2022-09-30T10:06:44.653Z,45.60
2022-09-30T10:09:35.391Z,46.03
2022-09-30T10:12:29.906Z,46.40
2022-09-30T10:15:23.242Z,46.53
2022-09-30T10:18:19.079Z,48.43
2022-09-30T10:21:20.760Z,48.50
2022-09-30T10:24:21.518Z,46.87
2022-09-30T10:27:27.984Z,47.20
2022-09-30T10:30:32.396Z,45.13
2022-09-30T10:33:25.452Z,43.97
2022-09-30T10:36:18.993Z,45.63
2022-09-30T10:39:09.569Z,44.43
2022-09-30T10:42:03.354Z,43.93
2022-09-30T10:44:56.113Z,43.37
2022-09-30T10:47:47.341Z,42.27
2022-09-30T10:50:36.083Z,41.53
2022-09-30T10:53:29.754Z,43.63
2022-09-30T10:56:33.817Z,43.17
2022-09-30T10:59:33.236Z,43.47
2022-09-30T11:02:30.121Z,41.30
2022-09-30T11:05:21.125Z,40.10
2022-09-30T11:08:19.409Z,46.40
2022-09-30T11:11:14.354Z,39.80
2022-09-30T11:14:17.231Z,39.93
2022-09-30T11:17:21.783Z,40.17
2022-09-30T11:20:20.539Z,39.27
2022-09-30T11:23:16.269Z,40.30
2022-09-30T11:26:13.659Z,39.63
2022-09-30T11:29:15.918Z,37.67
2022-09-30T11:32:14.117Z,37.30
2022-09-30T11:35:18.207Z,34.17
2022-09-30T11:38:16.175Z,34.50
2022-09-30T11:41:10.194Z,34.67
2022-09-30T11:44:09.136Z,34.47
2022-09-30T11:47:24.622Z,34.20
2022-09-30T11:50:35.135Z,34.03
2022-09-30T11:53:35.253Z,35.10
2022-09-30T11:56:41.413Z,34.30
2022-09-30T11:59:38.736Z,34.00
2022-09-30T12:02:36.636Z,33.03
2022-09-30T12:05:28.608Z,34.03
2022-09-30T12:08:21.015Z,34.80
2022-09-30T12:11:13.460Z,34.47
2022-09-30T12:14:06.792Z,33.00
2022-09-30T12:16:57.878Z,31.90
2022-09-30T12:19:49.789Z,33.50
2022-09-30T12:22:42.124Z,32.77
2022-09-30T12:25:37.960Z,33.70
2022-09-30T12:28:51.878Z,33.67
2022-09-30T12:32:09.551Z,34.03
2022-09-30T12:35:15.942Z,32.43
2022-09-30T12:38:18.046Z,32.87
2022-09-30T12:41:27.964Z,32.63
2022-09-30T12:44:41.164Z,35.67
2022-09-30T12:47:37.626Z,36.10
2022-09-30T12:50:29.802Z,36.37
2022-09-30T12:53:22.899Z,37.30
2022-09-30T12:56:15.832Z,36.00
2022-09-30T12:59:04.872Z,34.53
2022-09-30T13:01:53.672Z,35.80
2022-09-30T13:04:44.980Z,36.47
2022-09-30T13:07:34.761Z,36.43
2022-09-30T13:10:29.141Z,36.50
2022-09-30T13:13:24.742Z,37.90
2022-09-30T13:16:13.009Z,36.73
2022-09-30T13:19:03.376Z,36.27
2022-09-30T13:21:52.986Z,35.63
2022-09-30T13:25:12.159Z,32.30
2022-09-30T13:28:29.869Z,32.70
2022-09-30T13:31:20.032Z,32.60
2022-09-30T13:34:12.714Z,32.80
2022-09-30T13:37:03.881Z,32.57
2022-09-30T13:39:56.170Z,32.37
2022-09-30T13:42:52.346Z,32.53
2022-09-30T13:45:42.020Z,32.10
2022-09-30T13:48:33.712Z,31.00
2022-09-30T13:51:25.509Z,31.83
2022-09-30T13:54:24.178Z,31.03
2022-09-30T13:57:20.005Z,29.37
2022-09-30T14:00:14.068Z,29.17
2022-09-30T14:03:13.983Z,30.20
2022-09-30T14:06:11.524Z,31.77
2022-09-30T14:09:20.653Z,31.30
2022-09-30T14:12:23.583Z,32.83
2022-09-30T14:15:57.331Z,33.00
2022-09-30T14:19:11.461Z,33.40
2022-09-30T14:22:04.162Z,34.97
2022-09-30T14:24:54.342Z,35.20
2022-09-30T14:27:55.434Z,34.20
2022-09-30T14:31:05.922Z,34.80
2022-09-30T14:33:54.632Z,35.00
2022-09-30T14:36:43.352Z,33.57
2022-09-30T14:39:33.579Z,31.93
2022-09-30T14:42:29.813Z,32.67
2022-09-30T14:45:24.773Z,33.57
2022-09-30T14:48:18.615Z,34.50
2022-09-30T14:51:10.700Z,34.97
2022-09-30T14:54:02.118Z,33.10
2022-09-30T14:56:54.779Z,31.47
2022-09-30T14:59:44.561Z,31.17
2022-09-30T15:02:33.730Z,30.93
2022-09-30T15:05:22.293Z,31.57
2022-09-30T15:08:18.489Z,31.90
2022-09-30T15:11:07.152Z,33.00
2022-09-30T15:14:01.288Z,32.90
2022-09-30T15:16:53.072Z,31.90
2022-09-30T15:19:45.137Z,32.20
2022-09-30T15:22:33.853Z,31.80
2022-09-30T15:25:23.156Z,32.13
2022-09-30T15:28:12.283Z,31.73
2022-09-30T15:31:00.718Z,32.30
2022-09-30T15:33:50.657Z,32.73
2022-09-30T15:36:39.261Z,32.83
2022-09-30T15:39:50.591Z,32.50
2022-09-30T15:42:43.622Z,32.47
2022-09-30T15:45:35.767Z,32.50
2022-09-30T15:48:36.164Z,32.60
2022-09-30T15:51:38.213Z,34.07
2022-09-30T15:54:38.066Z,33.37
2022-09-30T15:57:44.568Z,35.70
2022-09-30T16:00:39.673Z,36.17
2022-09-30T16:03:30.542Z,36.43
2022-09-30T16:06:26.098Z,34.63
2022-09-30T16:09:27.283Z,35.23
2022-09-30T16:12:19.484Z,34.93
2022-09-30T16:15:15.668Z,35.23
2022-09-30T16:18:04.134Z,35.63
2022-09-30T16:21:00.671Z,35.57
2022-09-30T16:23:49.071Z,35.87
2022-09-30T16:26:45.729Z,34.43
2022-09-30T16:29:34.523Z,35.70
2022-09-30T16:32:23.795Z,35.17
2022-09-30T16:35:18.956Z,35.63
2022-09-30T16:38:08.318Z,35.27
2022-09-30T16:41:00.589Z,35.13
2022-09-30T16:43:51.160Z,36.40
2022-09-30T16:46:39.491Z,36.07
2022-09-30T16:49:28.189Z,37.17
2022-09-30T16:52:17.492Z,37.63
2022-09-30T16:55:06.564Z,37.03
2022-09-30T16:57:58.124Z,35.80
2022-09-30T17:00:47.823Z,35.73
2022-09-30T17:03:36.270Z,36.30
2022-09-30T17:06:28.785Z,35.93
2022-09-30T17:09:17.181Z,37.77
2022-09-30T17:12:05.732Z,46.50
2022-09-30T17:14:54.107Z,43.40
2022-09-30T17:17:43.930Z,41.87
2022-09-30T17:20:32.253Z,39.17
2022-09-30T17:23:21.248Z,40.37
2022-09-30T17:26:09.602Z,37.13
2022-09-30T17:29:14.583Z,38.50
2022-09-30T17:32:07.406Z,39.80
2022-09-30T17:34:57.163Z,41.13
2022-09-30T17:37:46.603Z,45.13
2022-09-30T17:40:51.805Z,44.63
2022-09-30T17:43:40.306Z,46.07
2022-09-30T17:46:29.132Z,47.57
2022-09-30T17:49:22.006Z,47.47
2022-09-30T17:52:15.072Z,47.47
2022-09-30T17:55:03.618Z,47.23
2022-09-30T17:57:54.196Z,47.47
2022-09-30T18:00:42.952Z,47.40
2022-09-30T18:03:32.439Z,47.23
2022-09-30T18:06:21.508Z,47.30
2022-09-30T18:09:11.426Z,46.80
2022-09-30T18:12:00.435Z,46.70
2022-09-30T18:14:48.804Z,46.27
2022-09-30T18:17:37.280Z,47.37
2022-09-30T18:20:25.884Z,47.53
2022-09-30T18:23:15.049Z,49.97
2022-09-30T18:26:04.872Z,50.50
2022-09-30T18:28:53.585Z,48.60
2022-09-30T18:31:43.322Z,48.90
2022-09-30T18:34:31.821Z,49.70
2022-09-30T18:37:20.520Z,48.20
2022-09-30T18:40:09.945Z,47.80
2022-09-30T18:43:02.592Z,47.50
2022-09-30T18:45:56.524Z,46.57
2022-09-30T18:48:45.285Z,48.43
2022-09-30T18:51:34.009Z,48.93
2022-09-30T18:54:24.071Z,50.23
2022-09-30T18:57:12.447Z,48.87
2022-09-30T19:00:02.958Z,48.90
2022-09-30T19:02:53.274Z,48.60
2022-09-30T19:05:42.775Z,49.87
2022-09-30T19:08:31.509Z,50.27
2022-09-30T19:11:20.266Z,48.90
2022-09-30T19:14:10.739Z,49.77
2022-09-30T19:17:00.477Z,49.90
2022-09-30T19:19:50.897Z,49.30
2022-09-30T19:22:39.288Z,49.80
2022-09-30T19:25:27.649Z,51.10
2022-09-30T19:28:16.360Z,51.47
2022-09-30T19:31:08.827Z,52.63
2022-09-30T19:33:59.195Z,51.17
2022-09-30T19:36:51.871Z,53.93
2022-09-30T19:39:45.920Z,53.03
2022-09-30T19:42:37.939Z,51.33
2022-09-30T19:45:27.378Z,52.60
2022-09-30T19:48:15.877Z,50.83
2022-09-30T19:51:08.742Z,50.30
2022-09-30T19:54:06.343Z,50.60
2022-09-30T19:56:55.541Z,50.27
2022-09-30T19:59:43.929Z,50.13
2022-09-30T20:02:32.409Z,51.37
2022-09-30T20:05:22.571Z,51.67
2022-09-30T20:08:12.704Z,50.93
2022-09-30T20:11:06.655Z,51.00
2022-09-30T20:14:12.126Z,51.40
2022-09-30T20:17:00.421Z,50.30
2022-09-30T20:20:09.149Z,48.63
2022-09-30T20:23:01.365Z,49.70
2022-09-30T20:25:52.846Z,47.77
2022-09-30T20:28:42.028Z,55.23
2022-09-30T20:31:31.853Z,48.60
2022-09-30T20:34:20.736Z,50.27
2022-09-30T20:37:09.254Z,50.47
2022-09-30T20:39:57.885Z,49.77
2022-09-30T20:42:47.935Z,50.80
2022-09-30T20:45:36.590Z,51.37
2022-09-30T20:48:26.437Z,51.33
2022-09-30T20:51:19.349Z,50.97
2022-09-30T20:54:07.739Z,53.20
2022-09-30T20:57:07.304Z,53.53
2022-09-30T20:59:58.501Z,54.57
2022-09-30T21:02:46.898Z,56.03
2022-09-30T21:05:36.134Z,55.00
2022-09-30T21:08:25.067Z,55.00
2022-09-30T21:11:14.915Z,56.07
2022-09-30T21:14:06.126Z,55.00
2022-09-30T21:16:55.905Z,57.37
2022-09-30T21:19:44.446Z,122.83
2022-09-30T21:22:32.807Z,56.33
2022-09-30T21:25:21.255Z,55.27
2022-09-30T21:28:09.645Z,56.00
2022-09-30T21:30:58.344Z,58.97
2022-09-30T21:33:51.498Z,59.57
2022-09-30T21:36:39.902Z,60.53
2022-09-30T21:39:28.273Z,62.87
2022-09-30T21:42:16.697Z,65.63
2022-09-30T21:45:05.849Z,66.57
2022-09-30T21:48:02.061Z,67.83
2022-09-30T21:50:51.871Z,68.77
2022-09-30T21:53:40.394Z,70.87
2022-09-30T21:56:29.357Z,73.00
2022-09-30T21:59:18.084Z,72.47
2022-09-30T22:02:06.666Z,71.90
2022-09-30T22:04:55.030Z,71.33
2022-09-30T22:07:44.620Z,74.13
2022-09-30T22:10:33.038Z,76.67
2022-09-30T22:13:21.400Z,73.93
2022-09-30T22:16:09.822Z,77.67
2022-09-30T22:19:00.619Z,76.70
2022-09-30T22:21:49.142Z,78.63
2022-09-30T22:24:39.044Z,77.13
2022-09-30T22:27:27.398Z,79.33
2022-09-30T22:30:15.811Z,80.27
2022-09-30T22:33:21.695Z,80.73
2022-09-30T22:36:27.744Z,81.70
2022-09-30T22:39:16.189Z,82.77
2022-09-30T22:42:07.367Z,81.27
2022-09-30T22:44:55.720Z,80.03
2022-09-30T22:47:44.194Z,79.03
2022-09-30T22:50:36.013Z,81.00
2022-09-30T22:53:24.726Z,82.70
2022-09-30T22:56:13.090Z,80.23
2022-09-30T22:59:03.062Z,82.43
2022-09-30T23:01:51.900Z,82.57
2022-09-30T23:04:40.237Z,80.80
2022-09-30T23:07:28.594Z,80.87
2022-09-30T23:10:17.164Z,81.23
2022-09-30T23:13:08.952Z,81.50
2022-09-30T23:16:00.230Z,84.43
2022-09-30T23:18:48.636Z,83.67
2022-09-30T23:21:37.620Z,83.50
2022-09-30T23:24:26.224Z,85.03
2022-09-30T23:27:14.680Z,85.47
2022-09-30T23:30:03.034Z,85.47
2022-09-30T23:32:52.690Z,84.10
2022-09-30T23:35:46.257Z,86.20
2022-09-30T23:38:35.123Z,85.73
2022-09-30T23:41:23.563Z,85.20
2022-09-30T23:44:11.845Z,83.63
2022-09-30T23:47:17.459Z,84.93
2022-09-30T23:50:08.472Z,85.33
2022-09-30T23:52:58.654Z,85.60
2022-09-30T23:55:55.401Z,84.10
2022-09-30T23:58:44.584Z,85.93
